createdAt,value
2022-07-29T00:00:04.982Z,23.36
2022-07-29T00:00:17.358Z,23.37
2022-07-29T00:00:29.374Z,23.36
2022-07-29T00:00:41.511Z,23.38
2022-07-29T00:00:53.567Z,23.39
2022-07-29T00:01:05.491Z,23.39
2022-07-29T00:01:19.101Z,23.40
2022-07-29T00:01:31.691Z,23.39
2022-07-29T00:01:44.252Z,23.39
2022-07-29T00:01:56.220Z,23.40
2022-07-29T00:02:08.171Z,23.40
2022-07-29T00:02:20.140Z,23.39
2022-07-29T00:02:33.072Z,23.38
2022-07-29T00:02:45.141Z,23.39
2022-07-29T00:02:57.194Z,23.39
2022-07-29T00:03:09.202Z,23.39
2022-07-29T00:03:21.274Z,23.39
2022-07-29T00:03:33.386Z,23.40
2022-07-29T00:03:45.469Z,23.40
2022-07-29T00:03:57.439Z,23.42
2022-07-29T00:04:09.498Z,23.41
2022-07-29T00:04:21.998Z,23.39
2022-07-29T00:04:37.349Z,23.40
2022-07-29T00:04:49.394Z,23.42
2022-07-29T00:05:02.820Z,23.42
2022-07-29T00:05:14.785Z,23.41
2022-07-29T00:05:26.749Z,23.41
2022-07-29T00:05:42.492Z,23.41
2022-07-29T00:05:54.433Z,23.41
2022-07-29T00:06:06.571Z,23.40
2022-07-29T00:06:18.569Z,23.39
2022-07-29T00:06:30.518Z,23.40
2022-07-29T00:06:42.582Z,23.39
2022-07-29T00:06:54.615Z,23.39
2022-07-29T00:07:06.647Z,23.38
2022-07-29T00:07:18.744Z,23.36
2022-07-29T00:07:30.754Z,23.33
2022-07-29T00:07:42.689Z,23.33
2022-07-29T00:07:54.908Z,23.29
2022-07-29T00:08:12.223Z,23.31
2022-07-29T00:08:24.677Z,23.30
2022-07-29T00:08:37.327Z,23.29
2022-07-29T00:08:49.259Z,23.27
2022-07-29T00:09:01.269Z,23.28
2022-07-29T00:09:13.358Z,23.27
2022-07-29T00:09:25.299Z,23.27
2022-07-29T00:09:41.874Z,23.26
2022-07-29T00:10:04.657Z,23.24
2022-07-29T00:10:16.646Z,23.26
2022-07-29T00:10:28.607Z,23.27
2022-07-29T00:10:40.621Z,23.26
2022-07-29T00:10:52.613Z,23.26
2022-07-29T00:11:05.332Z,23.22
2022-07-29T00:11:17.373Z,23.22
2022-07-29T00:11:29.404Z,23.21
2022-07-29T00:11:41.416Z,23.20
2022-07-29T00:11:54.663Z,23.22
2022-07-29T00:12:06.746Z,23.22
2022-07-29T00:12:26.387Z,23.21
2022-07-29T00:12:38.876Z,23.22
2022-07-29T00:12:50.891Z,23.19
2022-07-29T00:13:02.996Z,23.21
2022-07-29T00:13:15.161Z,23.19
2022-07-29T00:13:32.440Z,23.18
2022-07-29T00:13:50.551Z,23.17
2022-07-29T00:14:03.121Z,23.17
2022-07-29T00:14:15.337Z,23.19
2022-07-29T00:14:28.159Z,23.19
2022-07-29T00:14:40.249Z,23.18
2022-07-29T00:14:52.977Z,23.17
2022-07-29T00:15:05.539Z,23.17
2022-07-29T00:15:17.500Z,23.16
2022-07-29T00:15:29.592Z,23.19
2022-07-29T00:15:41.744Z,23.17
2022-07-29T00:15:53.717Z,23.16
2022-07-29T00:16:05.849Z,23.17
2022-07-29T00:16:17.958Z,23.18
2022-07-29T00:16:30.169Z,23.18
2022-07-29T00:16:42.166Z,23.21
2022-07-29T00:16:54.463Z,23.19
2022-07-29T00:17:06.661Z,23.18
2022-07-29T00:17:19.065Z,23.17
2022-07-29T00:17:31.193Z,23.15
2022-07-29T00:17:43.180Z,23.12
2022-07-29T00:17:55.317Z,23.12
2022-07-29T00:18:07.278Z,23.11
2022-07-29T00:18:19.237Z,23.09
2022-07-29T00:18:31.180Z,23.09
2022-07-29T00:18:43.136Z,23.10
2022-07-29T00:18:55.103Z,23.09
2022-07-29T00:19:07.918Z,23.09
2022-07-29T00:19:20.052Z,23.06
2022-07-29T00:19:33.203Z,23.07
2022-07-29T00:19:45.740Z,23.07
2022-07-29T00:19:58.039Z,23.07
2022-07-29T00:20:10.869Z,23.05
2022-07-29T00:20:22.870Z,23.03
2022-07-29T00:20:34.853Z,23.03
2022-07-29T00:20:46.815Z,23.00
2022-07-29T00:20:58.748Z,22.98
2022-07-29T00:21:10.959Z,22.95
2022-07-29T00:21:22.904Z,22.97
2022-07-29T00:21:34.843Z,22.98
2022-07-29T00:21:46.837Z,22.94
2022-07-29T00:21:58.778Z,22.94
2022-07-29T00:22:22.970Z,22.92
2022-07-29T00:22:39.025Z,22.94
2022-07-29T00:22:51.091Z,22.93
2022-07-29T00:23:03.054Z,22.94
2022-07-29T00:23:26.890Z,22.96
2022-07-29T00:23:38.868Z,22.95
2022-07-29T00:23:50.821Z,22.96
2022-07-29T00:24:02.859Z,22.95
2022-07-29T00:24:15.846Z,22.96
2022-07-29T00:24:28.025Z,22.95
2022-07-29T00:24:39.959Z,22.93
2022-07-29T00:24:51.974Z,22.91
2022-07-29T00:25:04.216Z,22.91
2022-07-29T00:25:16.153Z,22.91
2022-07-29T00:25:28.166Z,22.88
2022-07-29T00:25:40.227Z,22.88
2022-07-29T00:25:52.223Z,22.87
2022-07-29T00:26:04.270Z,22.88
2022-07-29T00:26:16.201Z,22.88
2022-07-29T00:26:32.441Z,22.89
2022-07-29T00:26:44.422Z,22.85
2022-07-29T00:26:56.379Z,22.88
2022-07-29T00:27:08.378Z,22.88
2022-07-29T00:27:20.307Z,22.84
2022-07-29T00:27:32.264Z,22.79
2022-07-29T00:27:44.420Z,22.76
2022-07-29T00:27:56.396Z,22.74
2022-07-29T00:28:08.347Z,22.72
2022-07-29T00:28:20.281Z,22.74
2022-07-29T00:28:32.360Z,22.72
2022-07-29T00:28:44.302Z,22.73
2022-07-29T00:29:30.840Z,22.72
2022-07-29T00:29:35.622Z,22.71
2022-07-29T00:29:47.673Z,22.69
2022-07-29T00:29:59.636Z,22.70
2022-07-29T00:30:11.838Z,22.70
2022-07-29T00:30:24.139Z,22.69
2022-07-29T00:30:36.089Z,22.68
2022-07-29T00:30:48.042Z,22.67
2022-07-29T00:31:00.536Z,22.68
2022-07-29T00:31:13.099Z,22.68
2022-07-29T00:31:25.140Z,22.66
2022-07-29T00:31:37.241Z,22.65
2022-07-29T00:31:49.379Z,22.66
2022-07-29T00:32:01.600Z,22.64
2022-07-29T00:32:13.667Z,22.66
2022-07-29T00:32:25.592Z,22.66
2022-07-29T00:32:37.536Z,22.65
2022-07-29T00:32:49.544Z,22.64
2022-07-29T00:33:01.535Z,22.64
2022-07-29T00:33:13.458Z,22.63
2022-07-29T00:33:25.704Z,22.62
2022-07-29T00:33:37.685Z,22.63
2022-07-29T00:33:49.616Z,22.60
2022-07-29T00:34:01.583Z,22.59
2022-07-29T00:34:31.772Z,22.60
2022-07-29T00:35:02.615Z,22.62
2022-07-29T00:35:32.928Z,22.60
2022-07-29T00:35:45.599Z,22.57
2022-07-29T00:35:57.573Z,22.58
2022-07-29T00:36:09.509Z,22.56
2022-07-29T00:36:24.464Z,22.54
2022-07-29T00:36:36.389Z,22.58
2022-07-29T00:36:48.361Z,22.55
2022-07-29T00:37:00.299Z,22.54
2022-07-29T00:37:12.280Z,22.53
2022-07-29T00:37:24.507Z,22.54
2022-07-29T00:37:36.536Z,22.53
2022-07-29T00:37:48.700Z,22.52
2022-07-29T00:38:00.704Z,22.53
2022-07-29T00:38:19.517Z,22.55
2022-07-29T00:38:31.657Z,22.54
2022-07-29T00:38:46.099Z,22.54
2022-07-29T00:38:58.029Z,22.56
2022-07-29T00:39:09.941Z,22.56
2022-07-29T00:39:22.102Z,22.56
2022-07-29T00:39:34.213Z,22.57
2022-07-29T00:39:46.273Z,22.57
2022-07-29T00:39:58.306Z,22.58
2022-07-29T00:40:10.973Z,22.57
2022-07-29T00:40:23.644Z,22.58
2022-07-29T00:40:35.848Z,22.57
2022-07-29T00:40:48.496Z,22.56
2022-07-29T00:41:00.475Z,22.57
2022-07-29T00:41:13.403Z,22.56
2022-07-29T00:41:25.348Z,22.57
2022-07-29T00:41:37.275Z,22.59
2022-07-29T00:41:49.641Z,22.59
2022-07-29T00:42:04.771Z,22.60
2022-07-29T00:42:17.543Z,22.61
2022-07-29T00:42:29.542Z,22.62
2022-07-29T00:42:44.388Z,22.62
2022-07-29T00:42:56.408Z,22.62
2022-07-29T00:43:08.681Z,22.60
2022-07-29T00:43:20.635Z,22.61
2022-07-29T00:43:32.597Z,22.60
2022-07-29T00:43:45.487Z,22.63
2022-07-29T00:43:57.420Z,22.63
2022-07-29T00:44:09.342Z,22.62
2022-07-29T00:44:21.849Z,22.60
2022-07-29T00:44:41.391Z,22.62
2022-07-29T00:44:53.328Z,22.57
2022-07-29T00:45:05.784Z,22.61
2022-07-29T00:45:18.510Z,22.60
2022-07-29T00:45:31.012Z,22.61
2022-07-29T00:45:43.288Z,22.62
2022-07-29T00:45:55.205Z,22.63
2022-07-29T00:46:07.646Z,22.64
2022-07-29T00:46:19.569Z,22.63
2022-07-29T00:46:31.583Z,22.63
2022-07-29T00:46:43.614Z,22.62
2022-07-29T00:46:55.639Z,22.62
2022-07-29T00:47:09.037Z,22.63
2022-07-29T00:47:21.083Z,22.60
2022-07-29T00:47:33.021Z,22.60
2022-07-29T00:47:45.294Z,22.62
2022-07-29T00:47:57.379Z,22.64
2022-07-29T00:48:09.804Z,22.64
2022-07-29T00:48:21.740Z,22.65
2022-07-29T00:48:33.684Z,22.64
2022-07-29T00:48:45.911Z,22.63
2022-07-29T00:48:58.374Z,22.64
2022-07-29T00:49:10.571Z,22.61
2022-07-29T00:49:22.616Z,22.62
2022-07-29T00:49:35.298Z,22.51
2022-07-29T00:49:47.678Z,22.53
2022-07-29T00:49:59.648Z,22.52
2022-07-29T00:50:13.602Z,22.53
2022-07-29T00:50:26.373Z,22.53
2022-07-29T00:50:38.907Z,22.52
2022-07-29T00:50:51.874Z,22.55
2022-07-29T00:51:05.089Z,22.56
2022-07-29T00:51:17.373Z,22.57
2022-07-29T00:51:29.770Z,22.57
2022-07-29T00:51:41.859Z,22.59
2022-07-29T00:51:54.344Z,22.61
2022-07-29T00:52:07.958Z,22.62
2022-07-29T00:52:19.891Z,22.63
2022-07-29T00:52:32.086Z,22.64
2022-07-29T00:52:44.706Z,22.61
2022-07-29T00:52:56.773Z,22.62
2022-07-29T00:53:09.192Z,22.62
2022-07-29T00:53:21.738Z,22.64
2022-07-29T00:53:34.987Z,22.66
2022-07-29T00:53:50.808Z,22.66
2022-07-29T00:54:03.757Z,22.65
2022-07-29T00:54:16.250Z,22.64
2022-07-29T00:54:28.752Z,22.65
2022-07-29T00:54:44.092Z,22.65
2022-07-29T00:54:57.369Z,22.63
2022-07-29T00:55:11.797Z,22.65
2022-07-29T00:55:23.850Z,22.63
2022-07-29T00:55:36.320Z,22.64
2022-07-29T00:55:48.411Z,22.65
2022-07-29T00:56:00.783Z,22.65
2022-07-29T00:56:12.849Z,22.66
2022-07-29T00:56:24.813Z,22.65
2022-07-29T00:56:37.285Z,22.66
2022-07-29T00:56:50.050Z,22.65
2022-07-29T00:57:02.520Z,22.62
2022-07-29T00:57:14.661Z,22.63
2022-07-29T00:57:26.692Z,22.64
2022-07-29T00:57:39.775Z,22.64
2022-07-29T00:57:53.200Z,22.64
2022-07-29T00:58:05.811Z,22.66
2022-07-29T00:58:17.881Z,22.67
2022-07-29T00:58:29.841Z,22.66
2022-07-29T00:58:42.135Z,22.66
2022-07-29T00:58:56.231Z,22.64
2022-07-29T00:59:08.165Z,22.64
2022-07-29T00:59:20.717Z,22.63
2022-07-29T00:59:34.906Z,22.62
2022-07-29T00:59:47.402Z,22.63
2022-07-29T00:59:59.354Z,22.61
2022-07-29T01:00:20.729Z,22.60
2022-07-29T01:00:32.790Z,22.59
2022-07-29T01:00:45.579Z,22.61
2022-07-29T01:00:58.859Z,22.58
2022-07-29T01:01:10.878Z,22.55
2022-07-29T01:01:22.846Z,22.56
2022-07-29T01:01:34.819Z,22.57
2022-07-29T01:01:46.833Z,22.59
2022-07-29T01:01:58.859Z,22.58
2022-07-29T01:02:11.072Z,22.58
2022-07-29T01:02:23.201Z,22.58
2022-07-29T01:02:35.230Z,22.61
2022-07-29T01:02:49.238Z,22.62
2022-07-29T01:03:01.486Z,22.62
2022-07-29T01:03:13.957Z,22.64
2022-07-29T01:03:26.022Z,22.66
2022-07-29T01:03:37.961Z,22.66
2022-07-29T01:03:50.074Z,22.66
2022-07-29T01:04:02.548Z,22.66
2022-07-29T01:04:14.712Z,22.67
2022-07-29T01:04:28.657Z,22.67
2022-07-29T01:04:41.861Z,22.67
2022-07-29T01:04:54.532Z,22.68
2022-07-29T01:05:07.810Z,22.69
2022-07-29T01:05:22.747Z,22.68
2022-07-29T01:05:50.939Z,22.69
2022-07-29T01:06:03.804Z,22.71
2022-07-29T01:06:17.947Z,22.72
2022-07-29T01:06:30.604Z,22.71
2022-07-29T01:06:43.555Z,22.70
2022-07-29T01:06:55.751Z,22.69
2022-07-29T01:07:08.496Z,22.68
2022-07-29T01:07:20.819Z,22.69
2022-07-29T01:07:37.797Z,22.68
2022-07-29T01:07:53.414Z,22.66
2022-07-29T01:08:06.223Z,22.63
2022-07-29T01:08:19.225Z,22.66
2022-07-29T01:08:33.540Z,22.65
2022-07-29T01:08:49.558Z,22.66
2022-07-29T01:09:02.289Z,22.66
2022-07-29T01:09:15.351Z,22.68
2022-07-29T01:09:35.029Z,22.66
2022-07-29T01:09:59.009Z,22.69
2022-07-29T01:10:14.047Z,22.69
2022-07-29T01:10:27.153Z,22.70
2022-07-29T01:10:41.803Z,22.71
2022-07-29T01:10:54.995Z,22.72
2022-07-29T01:11:08.289Z,22.72
2022-07-29T01:11:20.994Z,22.71
2022-07-29T01:11:34.869Z,22.71
2022-07-29T01:11:48.634Z,22.72
2022-07-29T01:12:01.250Z,22.72
2022-07-29T01:12:23.925Z,22.73
2022-07-29T01:12:37.762Z,22.76
2022-07-29T01:12:51.750Z,22.76
2022-07-29T01:13:05.779Z,22.77
2022-07-29T01:13:21.653Z,22.78
2022-07-29T01:13:34.244Z,22.80
2022-07-29T01:13:48.037Z,22.81
2022-07-29T01:14:01.192Z,22.80
2022-07-29T01:14:13.856Z,22.81
2022-07-29T01:14:27.191Z,22.80
2022-07-29T01:14:41.403Z,22.79
2022-07-29T01:14:55.718Z,22.77
2022-07-29T01:15:09.197Z,22.73
2022-07-29T01:15:23.999Z,22.73
2022-07-29T01:15:49.222Z,22.71
2022-07-29T01:16:11.042Z,22.71
2022-07-29T01:16:41.278Z,22.72
2022-07-29T01:17:24.220Z,22.74
2022-07-29T01:18:00.657Z,22.69
2022-07-29T01:18:42.039Z,22.72
2022-07-29T01:19:07.113Z,22.77
2022-07-29T01:19:40.517Z,22.76
2022-07-29T01:20:02.145Z,22.78
2022-07-29T01:20:38.082Z,22.82
2022-07-29T01:21:24.133Z,22.83
2022-07-29T01:21:56.190Z,22.83
2022-07-29T01:22:49.782Z,22.83
2022-07-29T01:23:07.952Z,22.84
2022-07-29T01:23:37.810Z,22.82
2022-07-29T01:24:11.602Z,22.84
2022-07-29T01:24:40.679Z,22.80
2022-07-29T01:25:10.643Z,22.81
2022-07-29T01:25:37.563Z,22.83
2022-07-29T01:26:05.023Z,22.83
2022-07-29T01:26:47.349Z,22.82
2022-07-29T01:27:18.178Z,22.82
2022-07-29T01:28:08.509Z,22.80
2022-07-29T01:28:42.083Z,22.81
2022-07-29T01:29:13.008Z,22.82
2022-07-29T01:29:36.126Z,22.82
2022-07-29T01:29:58.252Z,22.82
2022-07-29T01:30:11.061Z,22.82
2022-07-29T01:30:28.020Z,22.81
2022-07-29T01:30:45.414Z,22.80
2022-07-29T01:30:57.925Z,22.80
2022-07-29T01:31:12.426Z,22.78
2022-07-29T01:32:00.568Z,22.77
2022-07-29T01:32:27.840Z,22.78
2022-07-29T01:32:42.021Z,22.79
2022-07-29T01:32:59.936Z,22.79
2022-07-29T01:33:36.225Z,22.79
2022-07-29T01:33:55.939Z,22.80
2022-07-29T01:34:11.998Z,22.81
2022-07-29T01:34:36.075Z,22.81
2022-07-29T01:35:03.094Z,22.81
2022-07-29T01:35:32.251Z,22.84
2022-07-29T01:35:45.992Z,22.82
2022-07-29T01:36:00.202Z,22.85
2022-07-29T01:36:16.119Z,22.85
2022-07-29T01:36:56.423Z,22.80
2022-07-29T01:37:14.254Z,22.80
2022-07-29T01:38:13.521Z,22.77
2022-07-29T01:38:28.769Z,22.78
2022-07-29T01:38:43.652Z,22.78
2022-07-29T01:39:04.197Z,22.77
2022-07-29T01:39:33.398Z,22.77
2022-07-29T01:39:48.542Z,22.77
2022-07-29T01:40:03.184Z,22.78
2022-07-29T01:40:21.495Z,22.74
2022-07-29T01:40:54.135Z,22.71
2022-07-29T01:41:15.501Z,22.71
2022-07-29T01:41:32.395Z,22.70
2022-07-29T01:42:13.556Z,22.69
2022-07-29T01:42:43.895Z,22.70
2022-07-29T01:42:59.078Z,22.69
2022-07-29T01:43:14.092Z,22.70
2022-07-29T01:43:35.131Z,22.72
2022-07-29T01:43:58.231Z,22.72
2022-07-29T01:44:19.723Z,22.71
2022-07-29T01:44:40.999Z,22.71
2022-07-29T01:45:17.286Z,22.71
2022-07-29T01:45:41.242Z,22.72
2022-07-29T01:46:06.833Z,22.73
2022-07-29T01:46:26.269Z,22.70
2022-07-29T01:46:42.648Z,22.71
2022-07-29T01:46:59.745Z,22.74
2022-07-29T01:47:15.157Z,22.73
2022-07-29T01:47:43.208Z,22.73
2022-07-29T01:48:05.906Z,22.71
2022-07-29T01:48:24.134Z,22.71
2022-07-29T01:48:40.090Z,22.74
2022-07-29T01:48:58.838Z,22.72
2022-07-29T01:49:21.492Z,22.72
2022-07-29T01:49:37.729Z,22.74
2022-07-29T01:49:55.600Z,22.73
2022-07-29T01:50:12.707Z,22.74
2022-07-29T01:50:31.159Z,22.74
2022-07-29T01:50:59.430Z,22.74
2022-07-29T01:51:27.242Z,22.76
2022-07-29T01:52:00.728Z,22.73
2022-07-29T01:52:20.943Z,22.71
2022-07-29T01:52:38.759Z,22.68
2022-07-29T01:53:04.881Z,22.65
2022-07-29T01:53:39.869Z,22.67
2022-07-29T01:53:58.837Z,22.65
2022-07-29T01:54:20.844Z,22.65
2022-07-29T01:54:40.628Z,22.68
2022-07-29T01:54:58.157Z,22.66
2022-07-29T01:55:15.780Z,22.67
2022-07-29T01:55:33.010Z,22.65
2022-07-29T01:55:46.913Z,22.68
2022-07-29T01:56:02.856Z,22.68
2022-07-29T01:56:17.872Z,22.69
2022-07-29T01:56:34.601Z,22.69
2022-07-29T01:56:50.696Z,22.70
2022-07-29T01:57:05.641Z,22.70
2022-07-29T01:57:20.777Z,22.73
2022-07-29T01:57:36.798Z,22.71
2022-07-29T01:57:49.860Z,22.73
2022-07-29T01:58:06.259Z,22.73
2022-07-29T01:58:20.017Z,22.72
2022-07-29T01:58:34.094Z,22.70
2022-07-29T01:58:48.190Z,22.70
2022-07-29T01:59:03.933Z,22.70
2022-07-29T01:59:18.574Z,22.69
2022-07-29T01:59:32.207Z,22.68
2022-07-29T01:59:46.046Z,22.68
2022-07-29T02:00:01.095Z,22.67
2022-07-29T02:00:13.947Z,22.68
2022-07-29T02:00:27.338Z,22.68
2022-07-29T02:00:43.790Z,22.70
2022-07-29T02:00:58.243Z,22.69
2022-07-29T02:01:12.555Z,22.71
2022-07-29T02:01:26.007Z,22.71
2022-07-29T02:01:41.705Z,22.69
2022-07-29T02:01:55.359Z,22.70
2022-07-29T02:02:10.691Z,22.69
2022-07-29T02:02:24.140Z,22.69
2022-07-29T02:02:40.021Z,22.67
2022-07-29T02:02:55.022Z,22.71
2022-07-29T02:03:11.979Z,22.70
2022-07-29T02:03:25.144Z,22.70
2022-07-29T02:03:39.897Z,22.71
2022-07-29T02:03:55.173Z,22.68
2022-07-29T02:04:10.818Z,22.69
2022-07-29T02:04:28.933Z,22.68
2022-07-29T02:04:43.959Z,22.69
2022-07-29T02:04:58.067Z,22.70
2022-07-29T02:05:13.728Z,22.70
2022-07-29T02:05:28.355Z,22.71
2022-07-29T02:05:43.254Z,22.71
2022-07-29T02:05:57.587Z,22.71
2022-07-29T02:06:12.053Z,22.69
2022-07-29T02:06:25.113Z,22.71
2022-07-29T02:06:39.221Z,22.71
2022-07-29T02:06:54.153Z,22.70
2022-07-29T02:07:08.006Z,22.72
2022-07-29T02:07:22.873Z,22.71
2022-07-29T02:07:35.991Z,22.72
2022-07-29T02:07:50.448Z,22.68
2022-07-29T02:08:04.419Z,22.66
2022-07-29T02:08:19.330Z,22.69
2022-07-29T02:08:34.055Z,22.69
2022-07-29T02:08:47.944Z,22.66
2022-07-29T02:09:02.026Z,22.68
2022-07-29T02:09:16.396Z,22.68
2022-07-29T02:09:29.876Z,22.67
2022-07-29T02:09:43.365Z,22.67
2022-07-29T02:09:57.779Z,22.69
2022-07-29T02:10:11.642Z,22.70
2022-07-29T02:10:30.457Z,22.69
2022-07-29T02:10:43.980Z,22.68
2022-07-29T02:10:57.120Z,22.69
2022-07-29T02:11:09.572Z,22.70
2022-07-29T02:11:21.633Z,22.68
2022-07-29T02:11:36.413Z,22.70
2022-07-29T02:11:54.858Z,22.70
2022-07-29T02:12:08.404Z,22.70
2022-07-29T02:12:22.253Z,22.69
2022-07-29T02:12:36.499Z,22.67
2022-07-29T02:12:50.828Z,22.68
2022-07-29T02:13:04.912Z,22.67
2022-07-29T02:13:18.931Z,22.68
2022-07-29T02:13:32.373Z,22.68
2022-07-29T02:13:46.308Z,22.69
2022-07-29T02:13:59.737Z,22.69
2022-07-29T02:14:13.875Z,22.72
2022-07-29T02:14:30.746Z,22.70
2022-07-29T02:14:46.677Z,22.72
2022-07-29T02:15:01.832Z,22.72
2022-07-29T02:15:14.817Z,22.72
2022-07-29T02:15:31.384Z,22.73
2022-07-29T02:15:45.206Z,22.73
2022-07-29T02:15:58.950Z,22.74
2022-07-29T02:16:12.796Z,22.74
2022-07-29T02:16:29.776Z,22.74
2022-07-29T02:16:42.853Z,22.74
2022-07-29T02:16:59.175Z,22.76
2022-07-29T02:17:12.132Z,22.74
2022-07-29T02:17:47.582Z,22.73
2022-07-29T02:18:09.185Z,22.73
2022-07-29T02:18:25.101Z,22.73
2022-07-29T02:18:39.987Z,22.72
2022-07-29T02:18:54.794Z,22.73
2022-07-29T02:19:09.596Z,22.74
2022-07-29T02:19:25.989Z,22.70
2022-07-29T02:19:39.069Z,22.70
2022-07-29T02:19:53.492Z,22.71
2022-07-29T02:20:06.515Z,22.70
2022-07-29T02:20:19.272Z,22.69
2022-07-29T02:20:32.033Z,22.68
2022-07-29T02:20:49.248Z,22.70
2022-07-29T02:21:02.154Z,22.69
2022-07-29T02:21:19.093Z,22.68
2022-07-29T02:21:33.077Z,22.68
2022-07-29T02:21:46.549Z,22.68
2022-07-29T02:22:00.696Z,22.66
2022-07-29T02:22:13.868Z,22.66
2022-07-29T02:22:27.734Z,22.66
2022-07-29T02:22:41.351Z,22.66
2022-07-29T02:22:55.481Z,22.66
2022-07-29T02:23:10.643Z,22.65
2022-07-29T02:23:24.099Z,22.64
2022-07-29T02:23:50.434Z,22.64
2022-07-29T02:24:05.544Z,22.64
2022-07-29T02:24:19.839Z,22.62
2022-07-29T02:24:32.144Z,22.64
2022-07-29T02:24:45.620Z,22.64
2022-07-29T02:24:59.599Z,22.64
2022-07-29T02:25:14.375Z,22.65
2022-07-29T02:25:37.045Z,22.62
2022-07-29T02:25:52.622Z,22.61
2022-07-29T02:26:05.498Z,22.61
2022-07-29T02:26:20.286Z,22.58
2022-07-29T02:26:34.574Z,22.58
2022-07-29T02:26:48.202Z,22.58
2022-07-29T02:27:02.521Z,22.56
2022-07-29T02:27:16.101Z,22.57
2022-07-29T02:27:30.158Z,22.56
2022-07-29T02:27:44.026Z,22.57
2022-07-29T02:27:57.288Z,22.55
2022-07-29T02:28:09.438Z,22.55
2022-07-29T02:28:24.512Z,22.54
2022-07-29T02:28:37.192Z,22.53
2022-07-29T02:28:52.550Z,22.53
2022-07-29T02:29:05.185Z,22.51
2022-07-29T02:29:19.735Z,22.51
2022-07-29T02:29:33.482Z,22.52
2022-07-29T02:29:47.701Z,22.50
2022-07-29T02:30:02.815Z,22.51
2022-07-29T02:30:15.362Z,22.49
2022-07-29T02:30:29.574Z,22.50
2022-07-29T02:30:43.854Z,22.48
2022-07-29T02:31:00.386Z,22.49
2022-07-29T02:31:14.605Z,22.49
2022-07-29T02:31:31.090Z,22.50
2022-07-29T02:31:48.088Z,22.51
2022-07-29T02:32:01.834Z,22.50
2022-07-29T02:32:16.960Z,22.51
2022-07-29T02:32:29.720Z,22.51
2022-07-29T02:32:43.410Z,22.54
2022-07-29T02:32:56.303Z,22.55
2022-07-29T02:33:10.904Z,22.56
2022-07-29T02:33:25.033Z,22.54
2022-07-29T02:33:38.491Z,22.51
2022-07-29T02:33:51.362Z,22.50
2022-07-29T02:34:06.653Z,22.46
2022-07-29T02:34:20.370Z,22.44
2022-07-29T02:34:35.791Z,22.44
2022-07-29T02:34:49.297Z,22.45
2022-07-29T02:35:02.569Z,22.44
2022-07-29T02:35:16.855Z,22.43
2022-07-29T02:35:34.928Z,22.39
2022-07-29T02:35:48.588Z,22.37
2022-07-29T02:36:02.443Z,22.34
2022-07-29T02:36:16.901Z,22.35
2022-07-29T02:36:30.753Z,22.34
2022-07-29T02:36:45.198Z,22.35
2022-07-29T02:37:03.619Z,22.32
2022-07-29T02:37:17.749Z,22.31
2022-07-29T02:37:31.759Z,22.30
2022-07-29T02:38:06.524Z,22.31
2022-07-29T02:38:39.367Z,22.32
2022-07-29T02:38:52.439Z,22.32
2022-07-29T02:39:05.764Z,22.31
2022-07-29T02:39:19.080Z,22.31
2022-07-29T02:39:32.449Z,22.30
2022-07-29T02:39:45.802Z,22.29
2022-07-29T02:39:59.860Z,22.30
2022-07-29T02:40:14.123Z,22.31
2022-07-29T02:40:26.214Z,22.30
2022-07-29T02:40:40.584Z,22.31
2022-07-29T02:40:54.570Z,22.31
2022-07-29T02:41:12.212Z,22.30
2022-07-29T02:41:30.518Z,22.28
2022-07-29T02:41:48.714Z,22.24
2022-07-29T02:42:07.972Z,22.22
2022-07-29T02:42:22.009Z,22.04
2022-07-29T02:42:36.862Z,22.04
2022-07-29T02:42:49.116Z,22.04
2022-07-29T02:43:03.717Z,22.08
2022-07-29T02:43:16.620Z,22.11
2022-07-29T02:43:30.645Z,22.13
2022-07-29T02:43:44.385Z,22.16
2022-07-29T02:44:02.709Z,22.17
2022-07-29T02:44:20.899Z,22.10
2022-07-29T02:44:35.270Z,22.09
2022-07-29T02:44:47.224Z,22.01
2022-07-29T02:44:59.319Z,21.85
2022-07-29T02:45:11.814Z,21.89
2022-07-29T02:45:23.819Z,21.93
2022-07-29T02:45:35.863Z,21.97
2022-07-29T02:45:52.494Z,21.94
2022-07-29T02:46:12.671Z,21.98
2022-07-29T02:46:47.399Z,21.99
2022-07-29T02:47:14.382Z,21.99
2022-07-29T02:47:41.936Z,21.99
2022-07-29T02:47:57.294Z,21.99
2022-07-29T02:48:16.111Z,21.99
2022-07-29T02:48:49.540Z,21.97
2022-07-29T02:49:16.740Z,21.91
2022-07-29T02:49:41.999Z,21.90
2022-07-29T02:50:16.289Z,21.92
2022-07-29T02:50:34.820Z,21.92
2022-07-29T02:50:52.721Z,21.91
2022-07-29T02:51:13.000Z,21.92
2022-07-29T02:51:50.242Z,21.96
2022-07-29T02:52:09.913Z,21.96
2022-07-29T02:52:38.758Z,21.96
2022-07-29T02:52:56.542Z,21.94
2022-07-29T02:53:24.494Z,21.94
2022-07-29T02:53:39.556Z,21.91
2022-07-29T02:53:55.695Z,21.92
2022-07-29T02:54:10.074Z,21.91
2022-07-29T02:54:34.637Z,21.90
2022-07-29T02:55:07.737Z,21.92
2022-07-29T02:55:34.401Z,21.94
2022-07-29T02:56:22.114Z,21.97
2022-07-29T02:56:40.263Z,21.96
2022-07-29T02:56:56.386Z,21.96
2022-07-29T02:57:24.005Z,21.98
2022-07-29T02:57:54.831Z,21.98
2022-07-29T02:58:29.378Z,22.00
2022-07-29T02:58:50.818Z,21.99
2022-07-29T02:59:06.907Z,22.00
2022-07-29T02:59:24.198Z,22.01
2022-07-29T02:59:37.900Z,21.99
2022-07-29T02:59:53.885Z,22.00
2022-07-29T03:00:09.599Z,22.00
2022-07-29T03:00:23.322Z,22.01
2022-07-29T03:00:38.226Z,22.02
2022-07-29T03:00:52.565Z,22.01
2022-07-29T03:01:11.963Z,22.02
2022-07-29T03:01:26.559Z,22.03
2022-07-29T03:01:43.901Z,22.03
2022-07-29T03:01:58.588Z,22.04
2022-07-29T03:02:12.455Z,22.05
2022-07-29T03:02:27.618Z,22.05
2022-07-29T03:02:43.328Z,22.04
2022-07-29T03:02:59.460Z,22.04
2022-07-29T03:03:19.015Z,22.02
2022-07-29T03:03:38.484Z,22.01
2022-07-29T03:03:54.486Z,22.00
2022-07-29T03:04:09.032Z,21.98
2022-07-29T03:04:23.693Z,21.99
2022-07-29T03:04:38.631Z,22.01
2022-07-29T03:04:53.016Z,21.99
2022-07-29T03:05:07.821Z,21.97
2022-07-29T03:05:23.493Z,21.97
2022-07-29T03:05:36.176Z,21.97
2022-07-29T03:05:48.154Z,21.96
2022-07-29T03:06:03.303Z,21.97
2022-07-29T03:06:30.945Z,21.97
2022-07-29T03:06:50.627Z,22.00
2022-07-29T03:07:04.567Z,21.99
2022-07-29T03:07:20.310Z,22.00
2022-07-29T03:07:34.657Z,22.01
2022-07-29T03:07:50.396Z,22.01
2022-07-29T03:08:05.366Z,21.97
2022-07-29T03:08:18.008Z,21.98
2022-07-29T03:08:31.899Z,21.98
2022-07-29T03:08:45.508Z,21.99
2022-07-29T03:08:59.868Z,21.99
2022-07-29T03:09:13.843Z,22.01
2022-07-29T03:09:27.456Z,21.98
2022-07-29T03:09:41.666Z,21.99
2022-07-29T03:09:53.963Z,21.97
2022-07-29T03:10:10.940Z,21.97
2022-07-29T03:10:27.457Z,21.96
2022-07-29T03:10:43.533Z,21.94
2022-07-29T03:10:56.519Z,21.94
2022-07-29T03:11:09.864Z,21.95
2022-07-29T03:11:22.840Z,21.91
2022-07-29T03:11:55.998Z,21.92
2022-07-29T03:12:09.056Z,21.92
2022-07-29T03:12:21.446Z,21.94
2022-07-29T03:12:34.002Z,21.95
2022-07-29T03:12:46.934Z,21.86
2022-07-29T03:12:59.805Z,21.89
2022-07-29T03:13:13.996Z,21.89
2022-07-29T03:13:27.186Z,21.90
2022-07-29T03:13:40.220Z,21.90
2022-07-29T03:13:52.666Z,21.89
2022-07-29T03:14:06.573Z,21.89
2022-07-29T03:14:20.351Z,21.89
2022-07-29T03:14:33.255Z,21.90
2022-07-29T03:14:45.885Z,21.88
2022-07-29T03:14:59.790Z,21.90
2022-07-29T03:15:12.348Z,21.91
2022-07-29T03:15:25.376Z,21.89
2022-07-29T03:15:38.242Z,21.91
2022-07-29T03:15:51.073Z,21.91
2022-07-29T03:16:03.879Z,21.91
2022-07-29T03:16:16.892Z,21.92
2022-07-29T03:16:29.351Z,21.92
2022-07-29T03:16:42.129Z,21.93
2022-07-29T03:16:54.430Z,21.93
2022-07-29T03:17:06.832Z,21.92
2022-07-29T03:17:19.544Z,21.92
2022-07-29T03:17:32.814Z,21.90
2022-07-29T03:17:45.211Z,21.91
2022-07-29T03:17:58.193Z,21.91
2022-07-29T03:18:10.703Z,21.89
2022-07-29T03:18:23.240Z,21.88
2022-07-29T03:18:35.938Z,21.88
2022-07-29T03:18:48.556Z,21.85
2022-07-29T03:19:02.288Z,21.89
2022-07-29T03:19:14.852Z,21.89
2022-07-29T03:19:27.918Z,21.89
2022-07-29T03:19:40.533Z,21.89
2022-07-29T03:19:52.639Z,21.88
2022-07-29T03:20:05.303Z,21.88
2022-07-29T03:20:17.582Z,21.90
2022-07-29T03:20:29.745Z,21.92
2022-07-29T03:20:42.194Z,21.91
2022-07-29T03:20:54.362Z,21.92
2022-07-29T03:21:06.497Z,21.91
2022-07-29T03:21:18.620Z,21.89
2022-07-29T03:21:31.193Z,21.89
2022-07-29T03:21:43.223Z,21.85
2022-07-29T03:21:57.985Z,21.84
2022-07-29T03:22:10.497Z,21.85